createdAt,value
2023-03-17T00:01:22.715Z,99697.66
2023-03-17T00:03:50.617Z,99705.28
2023-03-17T00:06:28.622Z,99682.31
2023-03-17T00:08:56.125Z,99677.34
2023-03-17T00:11:23.244Z,99690.78
2023-03-17T00:13:50.231Z,99591.47
2023-03-17T00:16:19.445Z,99671.41
2023-03-17T00:18:46.608Z,99660.16
2023-03-17T00:21:14.779Z,99677.22
2023-03-17T00:23:42.588Z,99579.78
2023-03-17T00:26:10.107Z,99637.34
2023-03-17T00:28:37.731Z,99629.56
2023-03-17T00:31:13.490Z,99666.47
2023-03-17T00:33:40.875Z,99581.63
2023-03-17T00:36:11.109Z,99681.41
2023-03-17T00:38:38.872Z,99685.19
2023-03-17T00:41:06.339Z,99662.41
2023-03-17T00:43:33.121Z,99669.84
2023-03-17T00:45:59.930Z,99674.19
2023-03-17T00:48:27.598Z,99602.84
2023-03-17T00:50:54.640Z,99642.19
2023-03-17T00:53:22.240Z,99643.66
2023-03-17T00:55:49.105Z,99690.34
2023-03-17T00:58:32.732Z,99644.19
2023-03-17T01:00:59.958Z,99662.03
2023-03-17T01:03:27.032Z,99653.78
2023-03-17T01:05:54.389Z,99581.63
2023-03-17T01:08:21.580Z,99698.09
2023-03-17T01:10:48.524Z,99710.97
2023-03-17T01:13:16.724Z,99704.03
2023-03-17T01:15:45.742Z,99706.84
2023-03-17T01:18:13.957Z,99692.59
2023-03-17T01:20:40.959Z,99703.84
2023-03-17T01:23:08.419Z,99683.34
2023-03-17T01:25:35.636Z,99659.84
2023-03-17T01:28:02.559Z,99693.78
2023-03-17T01:30:39.813Z,99696.06
2023-03-17T01:33:09.126Z,99675.94
2023-03-17T01:35:37.017Z,99682.72
2023-03-17T01:38:05.067Z,99672.16
2023-03-17T01:40:33.911Z,99647.16
2023-03-17T01:43:06.788Z,99673.50
2023-03-17T01:46:11.913Z,99673.78
2023-03-17T01:48:47.368Z,99669.16
2023-03-17T01:51:17.677Z,99685.19
2023-03-17T01:53:45.360Z,99661.97
2023-03-17T01:56:12.561Z,99697.34
2023-03-17T01:58:39.773Z,99676.44
2023-03-17T02:01:07.695Z,99697.59
2023-03-17T02:03:34.576Z,99706.78
2023-03-17T02:06:01.600Z,99671.63
2023-03-17T02:08:28.366Z,99687.56
2023-03-17T02:10:55.126Z,99703.34
2023-03-17T02:13:22.079Z,99695.06
2023-03-17T02:15:50.538Z,99679.41
2023-03-17T02:18:19.138Z,99685.84
2023-03-17T02:20:48.864Z,99680.03
2023-03-17T02:23:17.405Z,99645.34
2023-03-17T02:25:45.340Z,99640.38
2023-03-17T02:28:32.340Z,99648.31
2023-03-17T02:30:59.085Z,99685.53
2023-03-17T02:33:26.004Z,99688.69
2023-03-17T02:35:53.145Z,99690.13
2023-03-17T02:38:19.936Z,99678.09
2023-03-17T02:40:47.204Z,99653.75
2023-03-17T02:43:14.297Z,99668.97
2023-03-17T02:45:41.917Z,99676.06
2023-03-17T02:48:08.742Z,99658.34
2023-03-17T02:50:35.559Z,99675.84
2023-03-17T02:53:02.314Z,99590.38
2023-03-17T02:55:29.087Z,99648.56
2023-03-17T02:57:55.927Z,99686.94
2023-03-17T03:00:22.840Z,99648.13
2023-03-17T03:02:49.581Z,99587.91
2023-03-17T03:05:16.652Z,99644.41
2023-03-17T03:07:43.508Z,99701.69
2023-03-17T03:10:10.858Z,99693.28
2023-03-17T03:12:37.797Z,99683.31
2023-03-17T03:15:05.589Z,99703.19
2023-03-17T03:17:32.347Z,99695.09
2023-03-17T03:19:59.397Z,99648.94
2023-03-17T03:22:26.186Z,99705.28
2023-03-17T03:24:52.973Z,99686.19
2023-03-17T03:27:19.726Z,99711.25
2023-03-17T03:29:46.567Z,99687.22
2023-03-17T03:32:13.470Z,99672.69
2023-03-17T03:34:40.252Z,99674.50
2023-03-17T03:37:08.451Z,99687.47
2023-03-17T03:39:35.764Z,99698.78
2023-03-17T03:42:02.490Z,99714.63
2023-03-17T03:44:29.383Z,99704.75
2023-03-17T03:46:57.240Z,99692.25
2023-03-17T03:49:24.552Z,99709.19
2023-03-17T03:51:51.558Z,99705.88
2023-03-17T03:54:18.389Z,99601.75
2023-03-17T03:56:45.420Z,99709.19
2023-03-17T03:59:12.275Z,99713.66
2023-03-17T04:01:40.126Z,99718.97
2023-03-17T04:04:07.013Z,99708.69
2023-03-17T04:06:34.047Z,99713.00
2023-03-17T04:09:00.800Z,99722.13
2023-03-17T04:11:27.628Z,99722.13
2023-03-17T04:13:54.476Z,99690.66
2023-03-17T04:16:21.390Z,99726.13
2023-03-17T04:18:48.168Z,99692.91
2023-03-17T04:21:18.628Z,99682.59
2023-03-17T04:23:46.139Z,99699.50
2023-03-17T04:26:13.750Z,99732.13
2023-03-17T04:28:40.762Z,99711.75
2023-03-17T04:31:09.161Z,99719.75
2023-03-17T04:33:36.995Z,99725.88
2023-03-17T04:36:04.360Z,99727.19
2023-03-17T04:38:31.128Z,99723.25
2023-03-17T04:40:57.865Z,99696.09
2023-03-17T04:43:24.795Z,99721.13
2023-03-17T04:45:52.169Z,99687.00
2023-03-17T04:48:18.961Z,99672.09
2023-03-17T04:50:48.020Z,99719.00
2023-03-17T04:53:14.813Z,99663.25
2023-03-17T04:55:42.192Z,99692.06
2023-03-17T04:58:11.783Z,99690.63
2023-03-17T05:00:41.317Z,99707.13
2023-03-17T05:03:23.924Z,99726.56
2023-03-17T05:05:53.292Z,99735.66
2023-03-17T05:08:20.263Z,99711.34
2023-03-17T05:10:47.015Z,99741.41
2023-03-17T05:13:13.926Z,99742.88
2023-03-17T05:15:40.799Z,99709.09
2023-03-17T05:18:08.376Z,99736.25
2023-03-17T05:20:35.217Z,99729.00
2023-03-17T05:23:01.938Z,99702.28
2023-03-17T05:25:28.784Z,99728.81
2023-03-17T05:27:56.650Z,99743.34
2023-03-17T05:30:23.359Z,99719.63
2023-03-17T05:32:50.159Z,99753.69
2023-03-17T05:35:17.640Z,99725.84
2023-03-17T05:37:44.904Z,99747.50
2023-03-17T05:40:12.526Z,99722.06
2023-03-17T05:42:39.443Z,99771.47
2023-03-17T05:45:08.140Z,99763.06
2023-03-17T05:47:35.368Z,99726.09
2023-03-17T05:50:02.408Z,99719.72
2023-03-17T05:52:29.187Z,99763.44
2023-03-17T05:54:55.994Z,99750.50
2023-03-17T05:57:22.840Z,99717.69
2023-03-17T05:59:50.896Z,99760.78
2023-03-17T06:02:17.816Z,99706.19
2023-03-17T06:04:44.591Z,99784.22
2023-03-17T06:07:12.180Z,99782.78
2023-03-17T06:09:38.889Z,99759.72
2023-03-17T06:12:06.969Z,99774.38
2023-03-17T06:14:33.838Z,99739.22
2023-03-17T06:17:00.571Z,99775.38
2023-03-17T06:19:28.450Z,99756.50
2023-03-17T06:21:55.164Z,99741.06
2023-03-17T06:24:21.997Z,99786.66
2023-03-17T06:26:48.926Z,99780.13
2023-03-17T06:29:16.049Z,99788.84
2023-03-17T06:31:43.385Z,99746.38
2023-03-17T06:34:10.111Z,99777.63
2023-03-17T06:36:39.309Z,99800.34
2023-03-17T06:39:06.326Z,99710.19
2023-03-17T06:41:33.563Z,99803.03
2023-03-17T06:44:00.365Z,99750.91
2023-03-17T06:46:27.277Z,99800.78
2023-03-17T06:48:54.197Z,99818.13
2023-03-17T06:51:21.132Z,99688.16
2023-03-17T06:53:47.851Z,99806.22
2023-03-17T06:56:28.869Z,99807.84
2023-03-17T06:58:56.578Z,99703.91
2023-03-17T07:01:23.644Z,99786.69
2023-03-17T07:03:50.937Z,99814.19
2023-03-17T07:06:17.934Z,99825.69
2023-03-17T07:08:44.816Z,99783.59
2023-03-17T07:11:11.715Z,99800.81
2023-03-17T07:13:39.409Z,99825.69
2023-03-17T07:16:07.149Z,99819.47
2023-03-17T07:18:34.480Z,99813.47
2023-03-17T07:21:04.609Z,99783.22
2023-03-17T07:23:31.541Z,99813.66
2023-03-17T07:25:58.404Z,99827.34
2023-03-17T07:28:25.379Z,99827.00
2023-03-17T07:30:52.574Z,99829.19
2023-03-17T07:33:22.770Z,99804.56
2023-03-17T07:35:49.895Z,99798.13
2023-03-17T07:38:17.284Z,99818.34
2023-03-17T07:40:45.848Z,99842.03
2023-03-17T07:43:12.830Z,99833.97
2023-03-17T07:45:39.667Z,99851.72
2023-03-17T07:48:06.947Z,99822.47
2023-03-17T07:50:34.411Z,99817.81
2023-03-17T07:53:01.673Z,99866.41
2023-03-17T07:55:29.860Z,99857.22
2023-03-17T07:57:57.848Z,99873.19
2023-03-17T08:00:24.851Z,99816.56
2023-03-17T08:03:06.851Z,99873.56
2023-03-17T08:05:36.270Z,99882.09
2023-03-17T08:08:03.091Z,99883.25
2023-03-17T08:10:30.255Z,99864.81
2023-03-17T08:12:57.363Z,99873.63
2023-03-17T08:15:24.111Z,99883.81
2023-03-17T08:17:51.783Z,99875.59
2023-03-17T08:20:19.460Z,99860.13
2023-03-17T08:22:46.351Z,99894.47
2023-03-17T08:25:13.186Z,99878.97
2023-03-17T08:27:40.126Z,99889.97
2023-03-17T08:30:07.955Z,99834.00
2023-03-17T08:32:34.836Z,99887.28
2023-03-17T08:35:01.797Z,99858.66
2023-03-17T08:37:28.659Z,99884.41
2023-03-17T08:39:55.591Z,99893.00
2023-03-17T08:42:22.652Z,99895.63
2023-03-17T08:44:49.931Z,99873.25
2023-03-17T08:47:16.659Z,99883.50
2023-03-17T08:49:43.931Z,99875.56
2023-03-17T08:52:11.254Z,99861.78
2023-03-17T08:54:38.117Z,99896.28
2023-03-17T08:57:04.970Z,99897.63
2023-03-17T08:59:31.782Z,99902.63
2023-03-17T09:01:58.532Z,99904.25
2023-03-17T09:04:26.292Z,99900.81
2023-03-17T09:07:03.176Z,99901.81
2023-03-17T09:09:31.386Z,99889.97
2023-03-17T09:11:58.443Z,99864.63
2023-03-17T09:14:25.287Z,99909.09
2023-03-17T09:16:52.719Z,99897.88
2023-03-17T09:19:19.620Z,99880.97
2023-03-17T09:21:46.718Z,99895.25
2023-03-17T09:24:13.887Z,99908.97
2023-03-17T09:26:40.708Z,99869.06
2023-03-17T09:29:07.614Z,99907.81
2023-03-17T09:31:36.450Z,99891.75
2023-03-17T09:34:05.200Z,99910.81
2023-03-17T09:36:33.357Z,99922.53
2023-03-17T09:39:00.762Z,99920.53
2023-03-17T09:41:53.718Z,99937.09
2023-03-17T09:44:36.120Z,99931.13
2023-03-17T09:47:24.504Z,99922.06
2023-03-17T09:49:52.685Z,99946.50
2023-03-17T09:52:25.242Z,99902.44
2023-03-17T09:54:52.057Z,99933.28
2023-03-17T09:57:26.692Z,99924.56
2023-03-17T10:00:07.367Z,99924.50
2023-03-17T10:02:35.649Z,99922.94
2023-03-17T10:05:31.630Z,99890.03
2023-03-17T10:08:31.298Z,99943.94
2023-03-17T10:11:03.451Z,99960.56
2023-03-17T10:13:46.223Z,99953.03
2023-03-17T10:16:17.949Z,99930.00
2023-03-17T10:18:59.625Z,99918.13
2023-03-17T10:21:29.366Z,99948.47
2023-03-17T10:23:57.552Z,99974.22
2023-03-17T10:26:31.763Z,99975.06
2023-03-17T10:29:04.164Z,99978.00
2023-03-17T10:31:35.931Z,99962.50
2023-03-17T10:34:16.026Z,99954.19
2023-03-17T10:36:45.756Z,99988.41
2023-03-17T10:39:14.530Z,99976.09
2023-03-17T10:41:48.818Z,99970.16
2023-03-17T10:44:46.832Z,99978.66
2023-03-17T10:47:24.282Z,99984.63
2023-03-17T10:49:52.616Z,100003.25
2023-03-17T10:52:23.160Z,99979.66
2023-03-17T10:54:51.551Z,99992.53
2023-03-17T10:57:18.631Z,99960.34
2023-03-17T10:59:53.391Z,99973.41
2023-03-17T11:02:30.688Z,99992.59
2023-03-17T11:05:03.830Z,100010.06
2023-03-17T11:07:38.816Z,100021.44
2023-03-17T11:10:19.383Z,99982.28
2023-03-17T11:12:49.417Z,100003.19
2023-03-17T11:15:17.964Z,100001.78
2023-03-17T11:18:03.427Z,100015.81
2023-03-17T11:20:47.344Z,100029.78
2023-03-17T11:23:30.045Z,99996.81
2023-03-17T11:26:33.894Z,100026.69
2023-03-17T11:29:38.409Z,100038.25
2023-03-17T11:32:26.331Z,100035.84
2023-03-17T11:34:59.132Z,100038.59
2023-03-17T11:37:37.770Z,100031.41
2023-03-17T11:40:40.219Z,100033.22
2023-03-17T11:43:41.517Z,100021.38
2023-03-17T11:46:19.473Z,99986.66
2023-03-17T11:49:08.154Z,100037.22
2023-03-17T11:52:03.592Z,100063.59
2023-03-17T11:54:42.686Z,100054.69
2023-03-17T11:57:38.178Z,100072.88
2023-03-17T12:00:33.984Z,100069.63
2023-03-17T12:03:19.538Z,100077.91
2023-03-17T12:05:48.884Z,100071.00
2023-03-17T12:08:30.051Z,100078.56
2023-03-17T12:10:58.304Z,100045.63
2023-03-17T12:13:29.627Z,100076.25
2023-03-17T12:16:12.486Z,100068.72
2023-03-17T12:19:03.868Z,100077.59
2023-03-17T12:21:50.926Z,100088.03
2023-03-17T12:24:22.871Z,100088.81
2023-03-17T12:27:03.754Z,100077.94
2023-03-17T12:29:54.621Z,100083.00
2023-03-17T12:32:24.377Z,100068.94
2023-03-17T12:34:57.056Z,100069.94
2023-03-17T12:37:25.089Z,100068.66
2023-03-17T12:40:10.017Z,100076.41
2023-03-17T12:43:02.210Z,100075.84
2023-03-17T12:45:44.712Z,100097.00
2023-03-17T12:48:36.381Z,100093.22
2023-03-17T12:51:41.825Z,100086.06
2023-03-17T12:54:31.110Z,100062.78
2023-03-17T12:57:05.684Z,100094.81
2023-03-17T12:59:34.188Z,100095.00
2023-03-17T13:02:15.661Z,100099.34
2023-03-17T13:04:58.139Z,100063.25
2023-03-17T13:07:38.156Z,100086.84
2023-03-17T13:10:20.611Z,100054.81
2023-03-17T13:12:47.287Z,100076.38
2023-03-17T13:15:38.364Z,100071.88
2023-03-17T13:18:17.119Z,100066.13
2023-03-17T13:20:56.011Z,100051.84
2023-03-17T13:24:06.064Z,100011.47
2023-03-17T13:26:53.665Z,100060.69
2023-03-17T13:29:33.446Z,100063.72
2023-03-17T13:32:25.016Z,100071.78
2023-03-17T13:35:01.351Z,100079.47
2023-03-17T13:37:33.846Z,100066.63
2023-03-17T13:40:20.214Z,100070.13
2023-03-17T13:43:09.774Z,100071.63
2023-03-17T13:45:37.411Z,100069.16
2023-03-17T13:48:29.130Z,100058.44
2023-03-17T13:51:08.972Z,100055.53
2023-03-17T13:53:41.545Z,100014.69
2023-03-17T13:56:16.928Z,100047.31
2023-03-17T13:59:00.617Z,100057.31
2023-03-17T14:01:28.773Z,100033.19
2023-03-17T14:03:56.671Z,100053.91
2023-03-17T14:06:28.286Z,100062.22
2023-03-17T14:08:57.137Z,100072.97
2023-03-17T14:11:35.725Z,100066.56
2023-03-17T14:14:15.266Z,100078.47
2023-03-17T14:16:51.640Z,100081.63
2023-03-17T14:19:41.624Z,100019.47
2023-03-17T14:22:24.600Z,100055.59
2023-03-17T14:24:53.189Z,100043.34
2023-03-17T14:27:20.912Z,100083.13
2023-03-17T14:29:47.805Z,100060.59
2023-03-17T14:32:16.442Z,99988.66
2023-03-17T14:35:04.967Z,100047.16
2023-03-17T14:37:31.824Z,100071.72
2023-03-17T14:39:59.355Z,100070.03
2023-03-17T14:42:28.338Z,100083.00
2023-03-17T14:45:08.538Z,100066.22
2023-03-17T14:47:40.125Z,100048.50
2023-03-17T14:50:24.591Z,100082.34
2023-03-17T14:52:51.435Z,100083.47
2023-03-17T14:55:19.870Z,100070.69
2023-03-17T14:57:52.075Z,100092.06
2023-03-17T15:00:31.928Z,100090.25
2023-03-17T15:02:59.963Z,100058.28
2023-03-17T15:05:28.791Z,100057.63
2023-03-17T15:07:55.613Z,100054.13
2023-03-17T15:10:31.392Z,100063.25
2023-03-17T15:13:02.191Z,100042.22
2023-03-17T15:15:36.091Z,100011.56
2023-03-17T15:18:21.423Z,100055.97
2023-03-17T15:20:48.224Z,100080.00
2023-03-17T15:23:19.624Z,100071.53
2023-03-17T15:25:50.170Z,100071.84
2023-03-17T15:28:18.388Z,100072.53
2023-03-17T15:30:48.210Z,100042.03
2023-03-17T15:33:31.347Z,100061.63
2023-03-17T15:36:00.357Z,100044.16
2023-03-17T15:38:27.534Z,100051.94
2023-03-17T15:40:54.522Z,100049.63
2023-03-17T15:43:24.218Z,100020.16
2023-03-17T15:46:00.818Z,100060.91
2023-03-17T15:48:28.202Z,100075.19
2023-03-17T15:50:55.400Z,100065.56
2023-03-17T15:53:22.325Z,100082.00
2023-03-17T15:55:49.135Z,100073.22
2023-03-17T15:58:16.296Z,100099.88
2023-03-17T16:00:43.166Z,100063.41
2023-03-17T16:03:30.598Z,100074.69
2023-03-17T16:05:58.392Z,100067.06
2023-03-17T16:08:25.343Z,100048.31
2023-03-17T16:10:54.769Z,100071.16
2023-03-17T16:13:22.516Z,100006.56
2023-03-17T16:15:59.327Z,100067.75
2023-03-17T16:18:33.404Z,100034.06
2023-03-17T16:21:00.219Z,100045.13
2023-03-17T16:23:28.856Z,100074.63
2023-03-17T16:26:11.806Z,100011.22
2023-03-17T16:28:41.632Z,100024.94
2023-03-17T16:31:34.840Z,100090.13
2023-03-17T16:34:01.798Z,100063.91
2023-03-17T16:36:28.577Z,100086.13
2023-03-17T16:38:55.612Z,100092.53
2023-03-17T16:41:24.181Z,100064.66
2023-03-17T16:44:01.430Z,100080.72
2023-03-17T16:46:29.011Z,100041.06
2023-03-17T16:48:56.318Z,100081.53
2023-03-17T16:51:25.054Z,100089.31
2023-03-17T16:53:52.036Z,100077.56
2023-03-17T16:56:20.296Z,100072.56
2023-03-17T16:58:47.257Z,100062.28
2023-03-17T17:01:16.705Z,100092.59
2023-03-17T17:03:43.675Z,100069.66
2023-03-17T17:06:11.344Z,100091.25
2023-03-17T17:08:38.270Z,100087.75
2023-03-17T17:11:05.097Z,100106.50
2023-03-17T17:13:32.511Z,100102.75
2023-03-17T17:16:00.331Z,100009.50
2023-03-17T17:18:27.166Z,100093.47
2023-03-17T17:20:54.146Z,100086.81
2023-03-17T17:23:23.289Z,100103.63
2023-03-17T17:25:50.306Z,100102.28
2023-03-17T17:28:18.245Z,100037.59
2023-03-17T17:30:48.086Z,100119.19
2023-03-17T17:33:16.315Z,100112.25
2023-03-17T17:35:43.926Z,100082.13
2023-03-17T17:38:26.683Z,100095.34
2023-03-17T17:40:54.318Z,100076.78
2023-03-17T17:43:21.122Z,100085.72
2023-03-17T17:45:50.787Z,100100.66
2023-03-17T17:48:18.260Z,100115.09
2023-03-17T17:50:45.194Z,100084.34
2023-03-17T17:53:12.699Z,100124.81
2023-03-17T17:55:43.015Z,100088.50
2023-03-17T17:58:13.146Z,100083.69
2023-03-17T18:00:39.912Z,100132.00
2023-03-17T18:03:06.635Z,100132.63
2023-03-17T18:05:33.742Z,100137.41
2023-03-17T18:08:02.492Z,100135.97
2023-03-17T18:10:30.027Z,100146.06
2023-03-17T18:12:57.256Z,100075.41
2023-03-17T18:15:24.614Z,100127.94
2023-03-17T18:17:51.694Z,100152.56
2023-03-17T18:20:20.395Z,100079.19
2023-03-17T18:22:47.375Z,100156.78
2023-03-17T18:25:15.506Z,100160.88
2023-03-17T18:27:42.756Z,100116.09
2023-03-17T18:30:11.842Z,100152.69
2023-03-17T18:32:39.146Z,100120.19
2023-03-17T18:35:09.149Z,100164.06
2023-03-17T18:37:36.347Z,100164.69
2023-03-17T18:40:14.303Z,100132.25
2023-03-17T18:42:42.225Z,100166.97
2023-03-17T18:45:10.529Z,100161.97
2023-03-17T18:47:39.068Z,100179.97
2023-03-17T18:50:07.290Z,100159.28
2023-03-17T18:52:34.610Z,100162.41
2023-03-17T18:55:01.485Z,100173.22
2023-03-17T18:57:28.396Z,100177.16
2023-03-17T18:59:55.745Z,100173.84
2023-03-17T19:02:22.844Z,100180.53
2023-03-17T19:04:49.799Z,100121.38
2023-03-17T19:07:16.780Z,100182.50
2023-03-17T19:09:43.958Z,100139.78
2023-03-17T19:12:10.874Z,100160.53
2023-03-17T19:14:38.903Z,100180.72
2023-03-17T19:17:06.430Z,100186.34
2023-03-17T19:19:34.002Z,100199.84
2023-03-17T19:22:01.367Z,100094.47
2023-03-17T19:24:28.159Z,100198.94
2023-03-17T19:26:54.917Z,100206.00
2023-03-17T19:29:21.842Z,100182.38
2023-03-17T19:31:48.946Z,100180.38
2023-03-17T19:34:15.724Z,100202.03
2023-03-17T19:36:43.603Z,100201.53
2023-03-17T19:39:11.111Z,100202.16
2023-03-17T19:41:37.840Z,100209.44
2023-03-17T19:44:06.951Z,100162.00
2023-03-17T19:46:36.641Z,100218.69
2023-03-17T19:49:04.830Z,100195.16
2023-03-17T19:51:32.123Z,100208.19
2023-03-17T19:53:58.915Z,100206.84
2023-03-17T19:56:25.990Z,100208.69
2023-03-17T19:58:52.857Z,100205.69
2023-03-17T20:01:20.089Z,100188.00
2023-03-17T20:03:46.989Z,100211.09
2023-03-17T20:06:13.918Z,100193.84
2023-03-17T20:08:41.263Z,100218.41
2023-03-17T20:11:08.327Z,100234.28
2023-03-17T20:13:35.878Z,100209.84
2023-03-17T20:16:02.727Z,100178.38
2023-03-17T20:18:29.824Z,100188.16
2023-03-17T20:20:57.795Z,100232.13
2023-03-17T20:23:25.065Z,100224.00
2023-03-17T20:25:52.439Z,100189.06
2023-03-17T20:28:20.142Z,100236.06
2023-03-17T20:30:48.043Z,100240.88
2023-03-17T20:33:14.985Z,100217.06
2023-03-17T20:35:43.488Z,100203.63
2023-03-17T20:38:10.981Z,100245.97
2023-03-17T20:40:37.934Z,100242.00
2023-03-17T20:43:04.781Z,100196.13
2023-03-17T20:45:31.877Z,100249.09
2023-03-17T20:47:58.689Z,100211.53
2023-03-17T20:50:25.528Z,100246.06
2023-03-17T20:52:52.520Z,100248.34
2023-03-17T20:55:20.238Z,100252.31
2023-03-17T20:57:47.776Z,100254.59
2023-03-17T21:00:17.978Z,100256.03
2023-03-17T21:02:45.901Z,100247.41
2023-03-17T21:05:18.178Z,100227.75
2023-03-17T21:07:44.987Z,100232.22
2023-03-17T21:10:12.091Z,100252.31
2023-03-17T21:12:39.077Z,100245.03
2023-03-17T21:15:06.386Z,100236.50
2023-03-17T21:17:33.265Z,100246.19
2023-03-17T21:20:01.173Z,100113.03
2023-03-17T21:22:27.991Z,100263.31
2023-03-17T21:24:55.532Z,100271.75
2023-03-17T21:27:22.585Z,100270.41
2023-03-17T21:29:49.303Z,100273.84
2023-03-17T21:32:16.102Z,100215.88
2023-03-17T21:34:42.977Z,100258.56
2023-03-17T21:37:09.751Z,100164.09
2023-03-17T21:39:36.753Z,100275.00
2023-03-17T21:42:04.073Z,100269.38
2023-03-17T21:44:32.525Z,100272.47
2023-03-17T21:47:02.574Z,100283.09
2023-03-17T21:49:29.782Z,100274.66
2023-03-17T21:51:56.500Z,100282.47
2023-03-17T21:54:23.342Z,100281.84
2023-03-17T21:56:50.430Z,100285.69
2023-03-17T21:59:18.632Z,100288.50
2023-03-17T22:01:45.440Z,100261.88
2023-03-17T22:04:12.842Z,100266.88
2023-03-17T22:06:40.327Z,100299.88
2023-03-17T22:09:07.300Z,100242.94
2023-03-17T22:11:34.342Z,100267.41
2023-03-17T22:14:02.073Z,100292.34
2023-03-17T22:16:29.085Z,100299.75
2023-03-17T22:18:55.958Z,100303.72
2023-03-17T22:21:23.659Z,100299.75
2023-03-17T22:23:50.633Z,100310.31
2023-03-17T22:26:18.869Z,100294.63
2023-03-17T22:28:46.320Z,100297.84
2023-03-17T22:31:20.161Z,100311.66
2023-03-17T22:33:48.478Z,100294.66
2023-03-17T22:36:15.600Z,100309.50
2023-03-17T22:38:42.522Z,100315.44
2023-03-17T22:41:11.960Z,100276.06
2023-03-17T22:43:40.119Z,100290.59
2023-03-17T22:46:07.040Z,100327.41
2023-03-17T22:48:36.090Z,100222.88
2023-03-17T22:51:14.230Z,100226.81
2023-03-17T22:53:41.080Z,100290.13
2023-03-17T22:56:08.251Z,100285.13
2023-03-17T22:58:35.254Z,100308.78
2023-03-17T23:01:02.835Z,100308.47
2023-03-17T23:03:29.844Z,100264.06
2023-03-17T23:05:58.450Z,100309.59
2023-03-17T23:08:26.355Z,100288.25
2023-03-17T23:10:53.708Z,100284.22
2023-03-17T23:13:20.834Z,100320.91
2023-03-17T23:15:47.761Z,100326.88
2023-03-17T23:18:14.738Z,100296.94
2023-03-17T23:20:42.164Z,100326.16
2023-03-17T23:23:09.266Z,100280.69
2023-03-17T23:25:36.679Z,100327.97
2023-03-17T23:28:03.582Z,100310.25
2023-03-17T23:30:31.372Z,100289.16
2023-03-17T23:32:58.663Z,100332.03
2023-03-17T23:35:25.540Z,100328.69
2023-03-17T23:37:52.409Z,100305.34
2023-03-17T23:40:19.253Z,100322.03
2023-03-17T23:42:48.228Z,100337.34
2023-03-17T23:45:18.450Z,100340.75
2023-03-17T23:47:46.037Z,100348.78
2023-03-17T23:50:13.362Z,100292.00
2023-03-17T23:52:40.579Z,100329.31
2023-03-17T23:55:08.087Z,100301.41
2023-03-17T23:57:37.975Z,100337.50
